7T31GM EGCC-LFPO
Flight info
| Callsign | 7T31GM |
|---|---|
| Flight time | N/A |
| Altitude | 29000 |
| Route | LISTO2Y LISTO P18 TELBA L151 KIDLI UN859 LGL H20 BOBSA BOBSA9E |
| Aircraft | RJ70/M-SDFGIRWY/LB1 |
Departure
| Time | 2026-05-01 15:29 |
|---|---|
| Airport | Manchester Airport (EGCC) |
Arrival
| Time | N/A |
|---|---|
| Airport | Paris-Orly Airport (LFPO) |
| Time | Latitude | Longitude | Altitude | Speed | Heading |
|---|---|---|---|---|---|
| 2026-05-01 14:39 | 53.36164 | -2.27699 | 255 ft | 0 kts | 17° |
| 2026-05-01 14:54 | 53.36163 | -2.27699 | 255 ft | 2 kts | 17° |
| 2026-05-01 14:54 | 53.36147 | -2.27707 | 255 ft | 2 kts | 18° |
| 2026-05-01 14:54 | 53.36132 | -2.27716 | 255 ft | 2 kts | 20° |
| 2026-05-01 14:54 | 53.36116 | -2.27726 | 255 ft | 2 kts | 23° |
| 2026-05-01 14:55 | 53.36101 | -2.27739 | 255 ft | 2 kts | 33° |
| 2026-05-01 14:55 | 53.36090 | -2.27758 | 255 ft | 2 kts | 77° |
| 2026-05-01 14:55 | 53.36090 | -2.27773 | 255 ft | 0 kts | 103° |
| 2026-05-01 14:58 | 53.36090 | -2.27771 | 255 ft | 2 kts | 103° |
| 2026-05-01 14:58 | 53.36080 | -2.27696 | 255 ft | 9 kts | 103° |
| 2026-05-01 14:58 | 53.36045 | -2.27617 | 255 ft | 10 kts | 178° |
| 2026-05-01 14:58 | 53.35962 | -2.27635 | 255 ft | 14 kts | 186° |
| 2026-05-01 14:59 | 53.35859 | -2.27652 | 255 ft | 16 kts | 186° |
| 2026-05-01 14:59 | 53.35759 | -2.27668 | 255 ft | 11 kts | 186° |
| 2026-05-01 14:59 | 53.35724 | -2.27693 | 255 ft | 6 kts | 225° |
| 2026-05-01 14:59 | 53.35672 | -2.27804 | 252 ft | 16 kts | 232° |
| 2026-05-01 15:00 | 53.35483 | -2.27915 | 246 ft | 13 kts | 167° |
| 2026-05-01 15:00 | 53.35466 | -2.27901 | 246 ft | 0 kts | 152° |
| 2026-05-01 15:00 | 53.35457 | -2.27915 | 246 ft | 5 kts | 230° |
| 2026-05-01 15:01 | 53.35417 | -2.27985 | 243 ft | 11 kts | 224° |
| 2026-05-01 15:01 | 53.35349 | -2.28096 | 240 ft | 16 kts | 224° |
| 2026-05-01 15:01 | 53.35256 | -2.28192 | 238 ft | 15 kts | 183° |
| 2026-05-01 15:01 | 53.35241 | -2.28193 | 237 ft | 0 kts | 183° |
| 2026-05-01 15:15 | 53.35239 | -2.28204 | 235 ft | 3 kts | 283° |
| 2026-05-01 15:16 | 53.35285 | -2.28197 | 237 ft | 0 kts | 42° |
| 2026-05-01 15:20 | 53.35297 | -2.28179 | 237 ft | 0 kts | 42° |
| 2026-05-01 15:21 | 53.35298 | -2.28178 | 237 ft | 0 kts | 41° |
| 2026-05-01 15:21 | 53.35304 | -2.28168 | 238 ft | 4 kts | 41° |
| 2026-05-01 15:21 | 53.35337 | -2.28116 | 239 ft | 8 kts | 43° |
| 2026-05-01 15:22 | 53.35398 | -2.28020 | 242 ft | 7 kts | 43° |
| 2026-05-01 15:22 | 53.35444 | -2.27944 | 245 ft | 9 kts | 50° |
| 2026-05-01 15:22 | 53.35456 | -2.27851 | 247 ft | 8 kts | 91° |
| 2026-05-01 15:23 | 53.35470 | -2.27763 | 248 ft | 8 kts | 50° |
| 2026-05-01 15:23 | 53.35504 | -2.27696 | 250 ft | 7 kts | 50° |
| 2026-05-01 15:23 | 53.35535 | -2.27631 | 252 ft | 7 kts | 51° |
| 2026-05-01 15:23 | 53.35576 | -2.27544 | 254 ft | 11 kts | 52° |
| 2026-05-01 15:24 | 53.35616 | -2.27460 | 255 ft | 10 kts | 50° |
| 2026-05-01 15:24 | 53.35672 | -2.27348 | 254 ft | 14 kts | 51° |
| 2026-05-01 15:24 | 53.35736 | -2.27216 | 255 ft | 15 kts | 52° |
| 2026-05-01 15:24 | 53.35801 | -2.27078 | 255 ft | 15 kts | 54° |
| 2026-05-01 15:25 | 53.35852 | -2.26937 | 255 ft | 14 kts | 54° |
| 2026-05-01 15:25 | 53.35907 | -2.26820 | 255 ft | 12 kts | 58° |
| 2026-05-01 15:25 | 53.35952 | -2.26711 | 255 ft | 11 kts | 52° |
| 2026-05-01 15:25 | 53.35997 | -2.26616 | 255 ft | 10 kts | 51° |
| 2026-05-01 15:26 | 53.36039 | -2.26530 | 255 ft | 9 kts | 51° |
| 2026-05-01 15:26 | 53.36077 | -2.26452 | 255 ft | 8 kts | 51° |
| 2026-05-01 15:26 | 53.36111 | -2.26380 | 255 ft | 8 kts | 51° |
| 2026-05-01 15:26 | 53.36150 | -2.26301 | 255 ft | 10 kts | 49° |
| 2026-05-01 15:27 | 53.36219 | -2.26207 | 255 ft | 14 kts | 49° |
| 2026-05-01 15:27 | 53.36270 | -2.26071 | 255 ft | 13 kts | 79° |
| 2026-05-01 15:27 | 53.36284 | -2.25920 | 255 ft | 14 kts | 68° |
| 2026-05-01 15:28 | 53.36175 | -2.25836 | 253 ft | 16 kts | 231° |
| 2026-05-01 15:28 | 53.36103 | -2.25984 | 254 ft | 21 kts | 231° |
| 2026-05-01 15:28 | 53.35902 | -2.26401 | 261 ft | 79 kts | 231° |
| 2026-05-01 15:29 | 53.34852 | -2.28565 | 718 ft | 141 kts | 234° |
| 2026-05-01 15:29 | 53.34192 | -2.29852 | 1442 ft | 146 kts | 231° |
| 2026-05-01 15:29 | 53.32385 | -2.30448 | 2768 ft | 153 kts | 156° |
| 2026-05-01 15:30 | 53.30419 | -2.29189 | 3791 ft | 162 kts | 163° |
| 2026-05-01 15:31 | 53.24915 | -2.26072 | 4641 ft | 246 kts | 162° |
| 2026-05-01 15:31 | 53.21623 | -2.24125 | 5731 ft | 252 kts | 162° |
| 2026-05-01 15:32 | 53.18309 | -2.22160 | 6996 ft | 254 kts | 162° |
| 2026-05-01 15:32 | 53.14946 | -2.20225 | 8207 ft | 258 kts | 166° |
| 2026-05-01 15:33 | 53.09527 | -2.20478 | 10222 ft | 270 kts | 185° |
| 2026-05-01 15:34 | 53.03479 | -2.21468 | 11484 ft | 304 kts | 185° |